createdAt,value
2018-02-07T00:01:00.230Z,20.02
2018-02-07T00:03:28.490Z,16.20
2018-02-07T00:05:56.718Z,16.30
2018-02-07T00:08:24.209Z,18.23
2018-02-07T00:10:51.681Z,15.98
2018-02-07T00:13:19.942Z,17.25
2018-02-07T00:15:47.405Z,21.00
2018-02-07T00:18:15.652Z,19.70
2018-02-07T00:20:43.144Z,18.80
2018-02-07T00:23:11.376Z,17.17
2018-02-07T00:25:38.922Z,16.00
2018-02-07T00:28:06.424Z,16.85
2018-02-07T00:30:33.885Z,19.73
2018-02-07T00:33:02.134Z,18.92
2018-02-07T00:35:29.599Z,18.55
2018-02-07T00:37:57.108Z,22.08
2018-02-07T00:40:24.576Z,19.10
2018-02-07T00:42:52.045Z,17.30
2018-02-07T00:45:19.524Z,18.27
2018-02-07T00:47:46.984Z,18.65
2018-02-07T00:50:14.473Z,20.62
2018-02-07T00:52:41.933Z,20.85
2018-02-07T00:55:09.426Z,20.65
2018-02-07T00:57:36.900Z,18.95
2018-02-07T01:00:04.380Z,18.50
2018-02-07T01:02:32.645Z,17.95
2018-02-07T01:05:00.874Z,18.87
2018-02-07T01:07:28.359Z,17.12
2018-02-07T01:09:55.861Z,19.60
2018-02-07T01:12:23.325Z,18.65
2018-02-07T01:14:50.798Z,19.87
2018-02-07T01:17:18.265Z,19.35
2018-02-07T01:19:45.734Z,19.02
2018-02-07T01:22:13.222Z,19.27
2018-02-07T01:24:41.457Z,19.33
2018-02-07T01:27:08.938Z,20.60
2018-02-07T01:29:36.439Z,16.70
2018-02-07T01:32:03.898Z,18.75
2018-02-07T01:34:31.357Z,19.52
2018-02-07T01:36:58.867Z,17.27
2018-02-07T01:39:26.320Z,14.70
2018-02-07T01:41:54.555Z,22.13
2018-02-07T01:44:22.053Z,20.00
2018-02-07T01:46:50.321Z,22.58
2018-02-07T01:49:17.790Z,19.75
2018-02-07T01:51:46.014Z,21.40
2018-02-07T01:54:13.500Z,18.90
2018-02-07T01:56:40.960Z,20.52
2018-02-07T01:59:08.455Z,18.55
2018-02-07T02:01:36.027Z,20.37
2018-02-07T02:04:03.505Z,20.60
2018-02-07T02:06:30.964Z,20.30
2018-02-07T02:08:58.464Z,19.87
2018-02-07T02:11:26.695Z,19.73
2018-02-07T02:13:54.170Z,24.30
2018-02-07T02:16:21.651Z,19.15
2018-02-07T02:18:49.879Z,20.75
2018-02-07T02:21:17.392Z,19.33
2018-02-07T02:23:45.612Z,20.37
2018-02-07T02:26:13.101Z,23.48
2018-02-07T02:28:41.342Z,21.35
2018-02-07T02:31:08.837Z,22.98
2018-02-07T02:33:37.092Z,22.75
2018-02-07T02:36:16.584Z,18.73
2018-02-07T02:38:44.064Z,18.20
2018-02-07T02:41:11.533Z,20.67
2018-02-07T02:43:39.017Z,19.73
2018-02-07T02:46:07.263Z,23.40
2018-02-07T02:48:35.524Z,19.55
2018-02-07T02:51:02.990Z,21.55
2018-02-07T02:53:30.454Z,21.52
2018-02-07T02:55:57.937Z,24.77
2018-02-07T02:58:26.181Z,23.12
2018-02-07T03:00:53.671Z,24.05
2018-02-07T03:03:21.136Z,20.85
2018-02-07T03:05:48.631Z,19.33
2018-02-07T03:08:16.096Z,20.05
2018-02-07T03:10:43.561Z,20.83
2018-02-07T03:13:11.050Z,19.65
2018-02-07T03:15:38.549Z,18.95
2018-02-07T03:18:06.028Z,16.90
2018-02-07T03:20:33.497Z,16.37
2018-02-07T03:23:00.963Z,13.73
2018-02-07T03:25:29.211Z,17.10
2018-02-07T03:27:56.711Z,18.17
2018-02-07T03:30:24.210Z,18.98
2018-02-07T03:32:51.677Z,15.73
2018-02-07T03:35:19.157Z,17.25
2018-02-07T03:37:47.381Z,20.90
2018-02-07T03:40:14.858Z,16.50
2018-02-07T03:42:42.349Z,14.85
2018-02-07T03:45:10.595Z,16.35
2018-02-07T03:47:38.078Z,13.57
2018-02-07T03:50:06.304Z,13.55
2018-02-07T03:52:33.789Z,12.88
2018-02-07T03:55:01.246Z,13.68
2018-02-07T03:57:28.701Z,14.68
2018-02-07T03:59:56.191Z,14.25
2018-02-07T04:02:24.442Z,16.60
2018-02-07T04:04:51.931Z,17.87
2018-02-07T04:07:19.416Z,14.40
2018-02-07T04:09:46.873Z,14.38
2018-02-07T04:12:14.368Z,14.27
2018-02-07T04:14:41.830Z,12.45
2018-02-07T04:17:10.090Z,16.75
2018-02-07T04:19:37.576Z,12.37
2018-02-07T04:22:05.792Z,11.20
2018-02-07T04:24:33.262Z,8.50
2018-02-07T04:27:00.746Z,12.10
2018-02-07T04:29:28.988Z,13.80
2018-02-07T04:31:56.458Z,12.13
2018-02-07T04:34:23.937Z,12.43
2018-02-07T04:36:52.189Z,13.32
2018-02-07T04:39:19.670Z,14.18
2018-02-07T04:41:47.905Z,13.80
2018-02-07T04:44:15.394Z,13.32
2018-02-07T04:46:43.629Z,15.85
2018-02-07T04:49:11.130Z,16.23
2018-02-07T04:51:39.343Z,14.73
2018-02-07T04:54:06.803Z,13.85
2018-02-07T04:56:34.280Z,10.27
2018-02-07T04:59:01.765Z,14.13
2018-02-07T05:01:29.991Z,12.77
2018-02-07T05:03:57.483Z,13.20
2018-02-07T05:06:24.947Z,11.32
2018-02-07T05:08:53.178Z,13.05
2018-02-07T05:11:20.631Z,13.30
2018-02-07T05:13:48.093Z,13.95
2018-02-07T05:16:15.572Z,16.17
2018-02-07T05:18:43.069Z,15.00
2018-02-07T05:21:10.532Z,16.25
2018-02-07T05:23:38.027Z,13.25
2018-02-07T05:26:05.505Z,16.70
2018-02-07T05:28:32.982Z,12.23
2018-02-07T05:31:01.218Z,12.88
2018-02-07T05:33:28.694Z,16.62
2018-02-07T05:35:56.168Z,13.80
2018-02-07T05:38:24.427Z,16.02
2018-02-07T05:40:52.663Z,15.30
2018-02-07T05:43:20.161Z,14.38
2018-02-07T05:45:48.381Z,14.60
2018-02-07T05:48:15.838Z,16.12
2018-02-07T05:50:43.324Z,14.55
2018-02-07T05:53:10.788Z,15.73
2018-02-07T05:55:38.300Z,17.67
2018-02-07T05:58:05.773Z,15.50
2018-02-07T06:00:33.236Z,13.38
2018-02-07T06:03:00.712Z,17.87
2018-02-07T06:05:28.165Z,13.45
2018-02-07T06:07:55.652Z,14.80
2018-02-07T06:10:23.883Z,13.93
2018-02-07T06:12:51.369Z,13.05
2018-02-07T06:15:19.610Z,11.15
2018-02-07T06:17:47.860Z,10.07
2018-02-07T06:20:15.320Z,11.25
2018-02-07T06:22:42.826Z,11.52
2018-02-07T06:25:10.276Z,14.95
2018-02-07T06:27:37.739Z,9.25
2018-02-07T06:30:05.977Z,13.62
2018-02-07T06:32:33.448Z,15.40
2018-02-07T06:35:00.927Z,11.40
2018-02-07T06:37:29.181Z,9.65
2018-02-07T06:39:56.667Z,13.40
2018-02-07T06:42:24.888Z,14.05
2018-02-07T06:44:52.398Z,18.80
2018-02-07T06:47:19.836Z,14.40
2018-02-07T06:49:47.308Z,14.00
2018-02-07T06:52:15.559Z,13.82
2018-02-07T06:54:43.036Z,15.80
2018-02-07T06:57:11.269Z,9.85
2018-02-07T06:59:38.766Z,12.20
2018-02-07T07:02:06.997Z,13.38
2018-02-07T07:04:34.466Z,15.82
2018-02-07T07:07:01.958Z,10.93
2018-02-07T07:09:29.408Z,14.75
2018-02-07T07:11:57.651Z,17.12
2018-02-07T07:14:25.133Z,12.80
2018-02-07T07:16:53.399Z,13.55
2018-02-07T07:19:20.860Z,9.20
2018-02-07T07:21:49.097Z,14.00
2018-02-07T07:24:16.580Z,10.50
2018-02-07T07:26:44.803Z,13.68
2018-02-07T07:29:12.302Z,12.90
2018-02-07T07:31:39.765Z,14.32
2018-02-07T07:34:07.254Z,17.98
2018-02-07T07:36:34.724Z,13.82
2018-02-07T07:39:02.209Z,23.60
2018-02-07T07:41:29.674Z,13.57
2018-02-07T07:43:57.202Z,16.95
2018-02-07T07:46:24.665Z,12.75
2018-02-07T07:48:52.120Z,16.85
2018-02-07T07:51:19.600Z,14.20
2018-02-07T07:53:47.094Z,13.23
2018-02-07T07:56:15.333Z,16.70
2018-02-07T07:58:43.589Z,19.52
2018-02-07T08:01:11.053Z,17.62
2018-02-07T08:03:38.525Z,11.98
2018-02-07T08:06:06.026Z,15.07
2018-02-07T08:08:33.498Z,16.23
2018-02-07T08:11:00.959Z,15.65
2018-02-07T08:13:28.458Z,13.82
2018-02-07T08:15:55.911Z,22.00
2018-02-07T08:18:23.409Z,18.60
2018-02-07T08:20:50.881Z,18.52
2018-02-07T08:23:18.371Z,27.70
2018-02-07T08:25:45.849Z,18.40
2018-02-07T08:28:14.105Z,17.75
2018-02-07T08:30:41.563Z,16.70
2018-02-07T08:33:09.058Z,12.18
2018-02-07T08:35:36.511Z,23.65
2018-02-07T08:38:03.996Z,20.00
2018-02-07T08:40:31.481Z,17.95
2018-02-07T08:42:58.967Z,17.15
2018-02-07T08:45:27.214Z,12.32
2018-02-07T08:47:54.682Z,16.02
2018-02-07T08:50:22.919Z,13.85
2018-02-07T08:52:50.401Z,17.80
2018-02-07T08:55:17.914Z,13.65
2018-02-07T08:57:45.362Z,10.70
2018-02-07T09:00:12.831Z,15.40
2018-02-07T09:02:40.331Z,19.42
2018-02-07T09:05:07.809Z,23.12
2018-02-07T09:07:35.300Z,15.00
2018-02-07T09:10:03.981Z,16.30
2018-02-07T09:12:31.478Z,17.33
2018-02-07T09:14:58.978Z,15.95
2018-02-07T09:17:26.435Z,23.48
2018-02-07T09:19:54.708Z,18.55
2018-02-07T09:22:22.175Z,21.75
2018-02-07T09:24:49.662Z,19.00
2018-02-07T09:27:17.128Z,39.40
2018-02-07T09:29:44.617Z,22.75
2018-02-07T09:32:12.848Z,14.80
2018-02-07T09:34:40.341Z,12.45
2018-02-07T09:37:08.625Z,18.10
2018-02-07T09:39:36.071Z,24.15
2018-02-07T09:42:04.308Z,18.50
2018-02-07T09:44:31.798Z,22.87
2018-02-07T09:47:00.066Z,23.85
2018-02-07T09:49:27.524Z,20.75
2018-02-07T09:51:55.769Z,20.33
2018-02-07T09:54:23.253Z,16.70
2018-02-07T09:56:51.493Z,22.33
2018-02-07T09:59:18.993Z,22.08
2018-02-07T10:01:47.246Z,29.10
2018-02-07T10:04:14.717Z,21.00
2018-02-07T10:06:42.981Z,24.85
2018-02-07T10:09:10.450Z,18.20
2018-02-07T10:11:38.715Z,22.65
2018-02-07T10:14:06.202Z,22.23
2018-02-07T10:16:33.690Z,29.98
2018-02-07T10:19:01.149Z,34.28
2018-02-07T10:21:28.669Z,19.75
2018-02-07T10:23:56.178Z,29.70
2018-02-07T10:26:23.639Z,23.92
2018-02-07T10:28:51.157Z,19.08
2018-02-07T10:31:18.616Z,45.03
2018-02-07T10:33:46.254Z,22.55
2018-02-07T10:36:13.746Z,17.77
2018-02-07T10:38:41.244Z,26.87
2018-02-07T10:41:08.747Z,25.50
2018-02-07T10:43:36.209Z,21.52
2018-02-07T10:46:03.686Z,31.02
2018-02-07T10:48:31.167Z,21.87
2018-02-07T10:50:59.411Z,23.73
2018-02-07T10:53:26.900Z,40.90
2018-02-07T10:55:55.156Z,23.27
2018-02-07T10:58:22.646Z,24.37
2018-02-07T11:00:50.122Z,24.30
2018-02-07T11:03:17.618Z,14.68
2018-02-07T11:05:45.125Z,23.98
2018-02-07T11:08:12.597Z,24.73
2018-02-07T11:10:40.057Z,26.23
2018-02-07T11:13:07.554Z,25.30
2018-02-07T11:15:35.039Z,24.90
2018-02-07T11:18:03.288Z,19.95
2018-02-07T11:20:30.758Z,20.70
2018-02-07T11:22:59.026Z,14.80
2018-02-07T11:25:27.262Z,15.55
2018-02-07T11:27:54.748Z,15.68
2018-02-07T11:30:22.207Z,25.42
2018-02-07T11:32:50.434Z,23.00
2018-02-07T11:35:17.928Z,23.87
2018-02-07T11:37:45.407Z,23.48
2018-02-07T11:40:13.668Z,18.40
2018-02-07T11:42:41.192Z,22.05
2018-02-07T11:45:08.642Z,48.05
2018-02-07T11:47:36.120Z,52.00
2018-02-07T11:50:03.615Z,35.53
2018-02-07T11:52:31.109Z,23.62
2018-02-07T11:54:58.580Z,17.70
2018-02-07T11:57:26.081Z,21.20
2018-02-07T11:59:54.314Z,23.92
2018-02-07T12:02:21.826Z,25.48
2018-02-07T12:04:49.312Z,28.87
2018-02-07T12:07:16.785Z,23.98
2018-02-07T12:09:44.281Z,22.58
2018-02-07T12:12:11.762Z,19.00
2018-02-07T12:14:39.244Z,20.52
2018-02-07T12:17:06.738Z,21.73
2018-02-07T12:19:34.988Z,17.58
2018-02-07T12:22:02.468Z,18.35
2018-02-07T12:24:30.746Z,24.77
2018-02-07T12:26:58.994Z,17.12
2018-02-07T12:29:26.490Z,34.50
2018-02-07T12:31:53.969Z,41.17
2018-02-07T12:34:21.469Z,30.12
2018-02-07T12:36:48.933Z,23.08
2018-02-07T12:39:17.610Z,21.73
2018-02-07T12:41:45.174Z,14.77
2018-02-07T12:44:12.629Z,17.83
2018-02-07T12:46:40.885Z,32.63
2018-02-07T12:49:08.389Z,42.03
2018-02-07T12:51:35.905Z,23.15
2018-02-07T12:54:03.373Z,19.50
2018-02-07T12:56:30.882Z,21.70
2018-02-07T12:58:58.336Z,27.13
2018-02-07T13:01:25.793Z,28.85
2018-02-07T13:03:53.380Z,19.75
2018-02-07T13:06:20.845Z,23.02
2018-02-07T13:08:50.508Z,31.17
2018-02-07T13:11:17.996Z,22.58
2018-02-07T13:13:45.458Z,19.98
2018-02-07T13:16:12.929Z,25.62
2018-02-07T13:18:40.421Z,31.62
2018-02-07T13:21:07.892Z,24.30
2018-02-07T13:23:35.356Z,26.02
2018-02-07T13:26:02.835Z,16.30
2018-02-07T13:28:30.297Z,24.25
2018-02-07T13:30:57.757Z,17.87
2018-02-07T13:33:25.432Z,13.55
2018-02-07T13:35:52.920Z,22.70
2018-02-07T13:38:20.390Z,20.27
2018-02-07T13:40:47.863Z,48.87
2018-02-07T13:43:15.341Z,31.27
2018-02-07T13:45:42.811Z,21.62
2018-02-07T13:48:11.061Z,22.70
2018-02-07T13:50:38.533Z,23.55
2018-02-07T13:53:05.993Z,16.67
2018-02-07T13:55:34.277Z,22.48
2018-02-07T13:58:02.505Z,21.45
2018-02-07T14:00:30.784Z,16.12
2018-02-07T14:02:58.270Z,23.67
2018-02-07T14:05:25.734Z,20.65
2018-02-07T14:07:53.196Z,18.90
2018-02-07T14:10:21.445Z,41.95
2018-02-07T14:12:48.915Z,33.80
2018-02-07T14:15:17.141Z,24.70
2018-02-07T14:17:45.505Z,18.98
2018-02-07T14:20:12.973Z,18.25
2018-02-07T14:22:41.212Z,21.85
2018-02-07T14:25:09.561Z,18.95
2018-02-07T14:27:37.044Z,21.12
2018-02-07T14:30:05.280Z,24.10
2018-02-07T14:32:32.765Z,22.25
2018-02-07T14:35:01.008Z,18.15
2018-02-07T14:37:28.476Z,22.17
2018-02-07T14:39:55.956Z,23.42
2018-02-07T14:42:24.198Z,20.80
2018-02-07T14:44:51.672Z,22.35
2018-02-07T14:47:19.928Z,21.48
2018-02-07T14:49:47.399Z,26.30
2018-02-07T14:52:14.866Z,22.95
2018-02-07T14:54:43.138Z,21.83
2018-02-07T14:57:11.389Z,20.67
2018-02-07T14:59:38.895Z,19.17
2018-02-07T15:02:06.352Z,18.75
2018-02-07T15:04:33.832Z,20.00
2018-02-07T15:07:01.324Z,16.62
2018-02-07T15:09:28.793Z,17.02
2018-02-07T15:11:56.307Z,16.92
2018-02-07T15:14:23.768Z,13.40
2018-02-07T15:16:51.258Z,21.75
2018-02-07T15:19:18.765Z,22.92
2018-02-07T15:21:46.254Z,19.50
2018-02-07T15:24:13.764Z,18.42
2018-02-07T15:26:41.229Z,20.92
2018-02-07T15:29:08.729Z,20.83
2018-02-07T15:31:36.210Z,29.00
2018-02-07T15:34:04.454Z,21.73
2018-02-07T15:36:31.941Z,22.30
2018-02-07T15:39:00.209Z,22.42
2018-02-07T15:41:28.465Z,23.60
2018-02-07T15:43:55.953Z,22.67
2018-02-07T15:46:24.204Z,21.80
2018-02-07T15:48:52.442Z,20.85
2018-02-07T15:51:19.937Z,14.27
2018-02-07T15:53:48.205Z,15.82
2018-02-07T15:56:15.885Z,17.62
2018-02-07T15:58:44.128Z,16.33
2018-02-07T16:01:11.602Z,19.92
2018-02-07T16:03:39.881Z,17.58
2018-02-07T16:06:07.351Z,22.67
2018-02-07T16:08:35.638Z,22.05
2018-02-07T16:11:03.156Z,18.87
2018-02-07T16:13:30.722Z,17.42
2018-02-07T16:15:59.107Z,19.98
2018-02-07T16:18:27.370Z,14.20
2018-02-07T16:20:54.883Z,20.50
2018-02-07T16:23:22.345Z,21.65
2018-02-07T16:25:49.850Z,18.75
2018-02-07T16:28:18.071Z,14.85
2018-02-07T16:30:45.565Z,24.85
2018-02-07T16:33:13.037Z,22.62
2018-02-07T16:35:41.299Z,22.13
2018-02-07T16:38:08.773Z,22.13
2018-02-07T16:40:37.033Z,22.20
2018-02-07T16:43:04.505Z,24.50
2018-02-07T16:45:32.798Z,22.62
2018-02-07T16:48:00.280Z,25.35
2018-02-07T16:50:27.752Z,22.75
2018-02-07T16:52:56.021Z,20.27
2018-02-07T16:55:23.510Z,22.85
2018-02-07T16:57:51.753Z,21.92
2018-02-07T17:00:19.255Z,23.27
2018-02-07T17:02:47.485Z,20.35
2018-02-07T17:05:15.008Z,20.17
2018-02-07T17:07:42.484Z,26.40
2018-02-07T17:10:10.003Z,28.45
2018-02-07T17:12:37.465Z,41.85
2018-02-07T17:15:04.964Z,26.77
2018-02-07T17:17:32.434Z,25.83
2018-02-07T17:19:59.908Z,19.85
2018-02-07T17:22:27.397Z,22.25
2018-02-07T17:24:54.864Z,25.95
2018-02-07T17:27:22.349Z,21.87
2018-02-07T17:29:49.816Z,29.30
2018-02-07T17:32:17.317Z,25.23
2018-02-07T17:34:44.780Z,24.90
2018-02-07T17:37:12.283Z,29.37
2018-02-07T17:39:39.758Z,26.08
2018-02-07T17:42:07.998Z,45.55
2018-02-07T17:44:35.506Z,33.50
2018-02-07T17:47:03.777Z,37.78
2018-02-07T17:49:32.038Z,26.00
2018-02-07T17:51:59.523Z,30.88
2018-02-07T17:54:27.010Z,25.75
2018-02-07T17:56:54.508Z,23.83
2018-02-07T17:59:22.750Z,19.80
2018-02-07T18:01:50.217Z,40.55
2018-02-07T18:04:17.696Z,30.35
2018-02-07T18:06:45.929Z,25.37
2018-02-07T18:09:13.416Z,27.25
2018-02-07T18:11:40.931Z,23.87
2018-02-07T18:14:08.413Z,16.62
2018-02-07T18:16:35.914Z,20.92
2018-02-07T18:19:03.427Z,20.83
2018-02-07T18:21:30.897Z,29.60
2018-02-07T18:23:58.378Z,28.73
2018-02-07T18:26:26.646Z,26.02
2018-02-07T18:28:54.937Z,33.95
2018-02-07T18:31:22.438Z,45.20
2018-02-07T18:33:49.901Z,31.55
2018-02-07T18:36:21.471Z,32.03
2018-02-07T18:38:49.686Z,48.03
2018-02-07T18:41:17.949Z,43.47
2018-02-07T18:43:46.882Z,30.37
2018-02-07T18:46:16.606Z,22.87
2018-02-07T18:51:23.094Z,24.63
2018-02-07T18:54:02.699Z,26.75
2018-02-07T18:56:30.194Z,26.08
2018-02-07T18:58:57.654Z,24.50
2018-02-07T19:01:26.015Z,28.25
2018-02-07T19:03:53.669Z,41.95
2018-02-07T19:06:21.797Z,40.03
2018-02-07T19:08:49.269Z,24.92
2018-02-07T19:11:16.774Z,25.77
2018-02-07T19:13:44.250Z,43.25
2018-02-07T19:16:12.481Z,35.78
2018-02-07T19:18:39.969Z,24.95
2018-02-07T19:21:08.214Z,30.90
2018-02-07T19:23:35.730Z,28.73
2018-02-07T19:26:03.180Z,26.62
2018-02-07T19:28:30.682Z,27.23
2018-02-07T19:30:58.155Z,24.75
2018-02-07T19:33:25.649Z,22.20
2018-02-07T19:35:53.124Z,29.02
2018-02-07T19:43:53.243Z,44.95
2018-02-07T19:46:21.506Z,27.42
2018-02-07T19:48:49.755Z,25.73
2018-02-07T19:51:17.246Z,24.90
2018-02-07T19:53:45.515Z,36.58
2018-02-07T19:56:13.746Z,36.20
2018-02-07T19:58:41.229Z,27.48
2018-02-07T20:01:08.727Z,26.58
2018-02-07T20:03:36.190Z,25.50
2018-02-07T20:06:03.685Z,22.00
2018-02-07T20:08:31.164Z,27.90
2018-02-07T20:10:58.682Z,21.58
2018-02-07T20:13:26.166Z,39.22
2018-02-07T20:15:53.637Z,34.90
2018-02-07T20:18:21.906Z,29.17
2018-02-07T20:20:50.164Z,26.58
2018-02-07T20:23:17.633Z,28.48
2018-02-07T20:25:45.126Z,32.80
2018-02-07T20:28:12.609Z,29.10
2018-02-07T20:30:40.202Z,25.52
2018-02-07T20:33:07.668Z,23.25
2018-02-07T20:35:35.941Z,28.55
2018-02-07T20:38:04.181Z,28.35
2018-02-07T20:40:31.676Z,22.73
2018-02-07T20:42:59.175Z,27.45
2018-02-07T20:45:26.662Z,24.77
2018-02-07T20:47:54.184Z,21.90
2018-02-07T20:50:21.804Z,26.62
2018-02-07T20:52:49.263Z,23.83
2018-02-07T20:55:17.539Z,25.35
2018-02-07T20:57:45.818Z,21.98
2018-02-07T21:00:14.053Z,32.13
2018-02-07T21:02:41.618Z,33.58
2018-02-07T21:05:09.214Z,25.10
2018-02-07T21:07:36.820Z,18.25
2018-02-07T21:10:04.287Z,19.83
2018-02-07T21:12:31.786Z,20.37
2018-02-07T21:14:59.296Z,19.08
2018-02-07T21:17:26.803Z,17.95
2018-02-07T21:19:54.283Z,26.30
2018-02-07T21:22:21.769Z,20.30
2018-02-07T21:24:49.288Z,17.75
2018-02-07T21:27:17.888Z,28.15
2018-02-07T21:29:45.379Z,29.12
2018-02-07T21:32:13.122Z,28.50
2018-02-07T21:34:40.663Z,24.23
2018-02-07T21:37:11.110Z,28.87
2018-02-07T21:39:38.608Z,28.95
2018-02-07T21:42:06.102Z,33.13
2018-02-07T21:44:33.578Z,30.83
2018-02-07T21:47:01.082Z,24.55
2018-02-07T21:49:29.337Z,23.95
2018-02-07T21:51:56.836Z,23.15
2018-02-07T21:54:24.322Z,25.75
2018-02-07T21:56:51.814Z,32.10
2018-02-07T22:05:04.604Z,25.88
2018-02-07T22:07:32.064Z,32.53
2018-02-07T22:09:59.530Z,23.55
2018-02-07T22:12:27.013Z,26.10
2018-02-07T22:14:55.243Z,33.08
2018-02-07T22:17:22.732Z,27.37
2018-02-07T22:19:50.196Z,28.08
2018-02-07T22:22:17.700Z,22.27
2018-02-07T22:24:45.165Z,20.55
2018-02-07T22:27:12.662Z,39.63
2018-02-07T22:29:40.134Z,26.92
2018-02-07T22:32:08.359Z,26.50
2018-02-07T22:34:35.844Z,30.50
2018-02-07T22:37:03.396Z,26.95
2018-02-07T22:39:30.881Z,18.20
2018-02-07T22:41:59.112Z,23.02
2018-02-07T22:44:26.599Z,23.10
2018-02-07T22:46:54.059Z,18.90
2018-02-07T22:49:22.314Z,23.95
2018-02-07T22:51:49.779Z,27.15
2018-02-07T22:54:17.267Z,25.17
2018-02-07T22:56:44.753Z,26.33
2018-02-07T22:59:12.228Z,31.15
2018-02-07T23:01:39.711Z,24.23
2018-02-07T23:04:07.196Z,25.25
2018-02-07T23:06:34.654Z,29.12
2018-02-07T23:09:02.160Z,25.00
2018-02-07T23:11:29.620Z,24.98
2018-02-07T23:13:57.098Z,25.33
2018-02-07T23:16:25.358Z,20.33
2018-02-07T23:18:52.832Z,28.52
2018-02-07T23:21:21.080Z,19.95
2018-02-07T23:23:48.556Z,19.35
2018-02-07T23:26:16.826Z,23.92
2018-02-07T23:28:44.280Z,33.03
2018-02-07T23:31:11.793Z,25.95
2018-02-07T23:33:39.260Z,20.60
2018-02-07T23:36:06.725Z,23.27
2018-02-07T23:38:34.212Z,21.58
2018-02-07T23:41:02.450Z,23.27
2018-02-07T23:43:29.937Z,18.05
2018-02-07T23:45:58.181Z,19.10
2018-02-07T23:48:25.673Z,31.45
2018-02-07T23:50:53.899Z,26.33
2018-02-07T23:53:21.394Z,23.55
2018-02-07T23:55:48.857Z,22.15
2018-02-07T23:58:17.113Z,20.90
